航空気象通報

ウインドサーファーのための航空気象通報による風予報です。

2/27-3/1の航空気象通報

2017年02月27日 23時38分48秒 | TAF
羽田空港
TAF RJTT 271105Z 2712/2818 36014KT 9999 FEW030
BECMG 2803/2806 08012KT
BECMG 2815/2818 02008KT
日本時間27日21時-28日12時:360度から14ノットの風
12-15時:風が変化
15-24時:080度から12ノットの風
1日00-03時:風が変化
03時:020度から8ノットの風


静岡空港
TAF RJNS 271105Z 2712/2818 04006KT 9999 FEW020 BKN040
BECMG 2719/2721 36005KT
BECMG 2800/2803 12006KT
BECMG 2806/2809 29006KT
日本時間27日21時-28日04時:040度から6ノットの風
04-06時:風が変化
06-09時:360度から5ノットの風
09-12時:風が変化
12-15時:120度から6ノットの風
15-18時:風が変化
18時-1日03時:290度から6ノットの風


福岡空港
TAF RJFF 271106Z 2712/2818 04005KT 9999 FEW040
BECMG 2712/2714 15004KT
BECMG 2800/2803 36005KT
BECMG 2809/2812 15004KT
日本時間27日21時:040度から5ノットの風
21-23時:風が変化
23時-28日09時:150度から4ノットの風
09-12時:風が変化
12-18時:360度から5ノットの風
18-21時:風が変化
21時-1日03時:150度から4ノットの風


那覇空港
TAF ROAH 271105Z 2712/2818 04010KT 8000 SCT035
日本時間27日21時-1日03時:040度から10ノットの風


石垣空港
TAF ROIG 271107Z 2712/2818 03012KT 9999 FEW025 BKN045
日本時間27日21時-1日03時:030度から12ノットの風


マウイのカフルイ空港
PHOG 271140Z 2712/2812 06008KT P6SM FEW030 SCT050 SCT250
FM272100 05014KT P6SM SCT030 SCT050 BKN250
FM280600 06008KT P6SM VCSH SCT025 BKN050 BKN150 AMD LTD TO VIS AND WIND TIL 271600
ハワイ時間27日02-11時:060度から8ノットの風

11-20時:060度から8ノットの風
20時-28日02時:060度から8ノットの風


サイパン空港
TAF PGSN 271120Z 2712/2812 08012KT P6SM VCSH SCT021 SCT045 BKN110
マリアナ時間27日22時-28日22時:080度から12ノットの風
コメント

2/26-2/28の航空気象通報

2017年02月26日 23時01分14秒 | TAF
羽田空港
TAF RJTT 261106Z 2612/2718 14010KT 9999 FEW030 BKN050
BECMG 2612/2614 01014KT
BECMG 2703/2706 07014KT
BECMG 2712/2715 04012KT
日本時間26日21時:140度から10ノットの風
21-23時:風が変化
23時-27日12時:010度から14ノットの風
12-15時:風が変化
15-21時:070度から14ノットの風
21-24時:風が変化
28日00-03時:040度から12ノットの風


静岡空港
TAF RJNS 261105Z 2612/2718 31006KT 9999 FEW030
BECMG 2622/2624 05006KT
BECMG 2703/2706 15010KT
BECMG 2709/2712 03006KT
日本時間26日21時-27日07時:310度から6ノットの風
07-09時:風が変化
09-12時:050度から6ノットの風
12-15時:風が変化
15-18時:150度から10ノットの風
18-21時:風が変化
21時-28日03時:030度から6ノットの風


福岡空港
TAF RJFF 261105Z 2612/2718 15005KT 9999 FEW030 SCT040
BECMG 2703/2706 34012KT
BECMG 2712/2715 15003KT
日本時間26日21時-27日12時:150度から5ノットの風
12-15時:風が変化
15-21時:340度から12ノットの風
21-24時:風が変化
28日00-03時:150度から3ノットの風


那覇空港
TAF ROAH 261111Z 2612/2718 02016KT 9999 FEW020 BKN030
BECMG 2712/2715 05006KT
日本時間26日21時-27日21時:020度から16ノットの風
21-24時:風が変化
28日00-03時:050度から6ノットの風


石垣空港
TAF ROIG 261112Z 2612/2718 02016KT 9999 FEW020 BKN030
TEMPO 2612/2616 01020G30KT
日本時間26日21時-28日03時:020度から16ノットの風
但し、26日21時-27日01時の間:ときどき010度から20ノット、突風30ノット


マウイのカフルイ空港
PHOG 261120Z 2612/2712 14006KT P6SM FEW030 OVC200
FM262100 04011KT P6SM SCT030 SCT050 BKN200
FM270500 VRB06KT P6SM FEW030 SCT050 AMD LTD TO VIS AND WIND TIL 261600
ハワイ時間26日02-11時:140度から6ノットの風
11-19時:040度から11ノットの風

19時-27日02時:風向不定6ノットの風


サイパン空港
TAF PGSN 261120Z 2612/2712 06016KT P6SM VCSH SCT020 SCT050
マリアナ時間26日22時-27日22時:060度から16ノットの風

コメント

2/25-2/27の航空気象通報

2017年02月25日 22時40分27秒 | TAF
羽田空港
TAF RJTT 251105Z 2512/2618 12006KT 9999 FEW020 SCT040
BECMG 2513/2515 34010KT
BECMG 2603/2606 14008KT
BECMG 2609/2612 36018KT
日本時間25日21-22時:120度から6ノットの風
22-24時:風が変化
26日00-12時:340度から10ノットの風
12-15時:風が変化
15-18時:140度から8ノットの風
18-21時:風が変化
21時-27日03時:360度から18ノットの風


静岡空港
TAF RJNS 251105Z 2512/2618 28012KT 9999 FEW030
TEMPO 2603/2609 26018G28KT
日本時間25日21時-27日03時:280度から12ノットの風
但し、26日12-15時の間:ときどき260度から18ノット、突風28ノット


福岡空港
TAF RJFF 251106Z 2512/2618 16003KT 9999 FEW030 SCT045
BECMG 2600/2603 32009KT
BECMG 2612/2615 16005KT
日本時間25日21時-26日09時:160度から3ノットの風
09-12時:風が変化
12-21時:320度から9ノットの風
21-24時:風が変化
27日00-03時:160度から5ノットの風


那覇空港
TAF ROAH 251107Z 2512/2618 04010KT 9999 FEW010 BKN025
TEMPO 2517/2519 4000 SHRA FEW008 BKN015 FEW020CB
TEMPO 2523/2603 4000 SHRA FEW008 BKN015 FEW020CB
日本時間25日21時-27日03時:040度から10ノットの風

但し、26日02-04時の間:ときどき
但し、26日08-12時の間:ときどき

石垣空港
TAF AMD ROIG 251231Z 2512/2618 04012KT 9999 FEW010 BKN030
TEMPO 2512/2515 3000 SHRA FEW005 BKN015 FEW020CB
TEMPO 2600/2606 01018G28KT
日本時間25日21時-27日03時:040度から12ノットの風
但し、26日09-15時の間:ときどき010度から18ノット、突風28ノット

但し、25日21-24時の間:ときどき

マウイのカフルイ空港
PHOG 251132Z 2512/2612 06008KT P6SM FEW035 SCT050
FM252000 03011KT P6SM FEW035 SCT050
FM260600 06008KT P6SM SCT035 SCT050 AMD LTD TO VIS AND WIND TIL 251600
ハワイ時間25日02-10時:060度から8ノットの風
10-20時:030度から11ノットの風
20時-26日02時:060度から8ノットの風


サイパン空港
TAF PGSN 251123Z 2512/2612 07015KT P6SM SCT022
マリアナ時間25日22時-26日22時:070度から15ノットの風

コメント

2/24-2/26の航空気象通報

2017年02月24日 23時06分59秒 | TAF
羽田空港
TAF RJTT 241107Z 2412/2518 35012KT 9999 FEW030 BKN050
BECMG 2500/2503 16008KT
BECMG 2512/2515 34008KT
日本時間24日21時-25日09時:350度から12ノットの風
09-12時:風が変化
12-21時:160度から8ノットの風
21-24時:風が変化
26日00-03時:340度から8ノットの風


静岡空港
TAF RJNS 241106Z 2412/2518 28010KT 9999 FEW030
日本時間24日21時-26日03時:280度から10ノットの風


福岡空港
TAF RJFF 241108Z 2412/2518 14005KT 9999 FEW030 SCT040
BECMG 2500/2503 28007KT
BECMG 2512/2515 17005KT
日本時間24日21時-25日09時:140度から5ノットの風
09-12時:風が変化
12-21時:280度から7ノットの風
21-24時:風が変化
26日00-03時:170度から5ノットの風


那覇空港
TAF ROAH 241111Z 2412/2518 01015KT 9999 FEW020 BKN030
日本時間24日21時-26日03時:010度から15ノットの風


石垣空港
TAF ROIG 241113Z 2412/2518 02011KT 9999 FEW010 BKN020
BECMG 2515/2518 10005KT
日本時間24日21時-25日24時:020度から11ノットの風
26日00-03時:風が変化
03時:100度から5ノットの風


マウイのカフルイ空港
PHOG 241120Z 2412/2512 04009KT P6SM SCT050 SCT300
FM242000 04015G21KT P6SM FEW040 SCT060 BKN250
FM250500 04009KT P6SM SCT035 BKN250 AMD LTD TO VIS AND WIND TIL 241600
ハワイ時間24日02-10時:040度から9ノットの風

10-19時:040度から15ノット、突風21ノット
19時-25日02時:040度から9ノットの風


サイパン空港
TAF PGSN 241120Z 2412/2512 07010KT P6SM SCT018 SCT110
マリアナ時間24日22時-25日22時:070度から10ノットの風
コメント

2/22-2/24の航空気象通報

2017年02月22日 23時54分11秒 | TAF
羽田空港
TAF AMD RJTT 221305Z 2213/2318 21020G30KT 9999 FEW020 BKN030
BECMG 2219/2221 20028G40KT
TEMPO 2221/2303 20035G50KT 4000 SHRA BR FEW005 BKN008
BECMG 2306/2309 34018KT
TEMPO 2312/2318 34028G40KT
日本時間22日21時-23日04時:210度から20ノット、突風30ノット
04-06時:風が変化
06-15時:200度から28ノット、突風40ノット
但し、23日06-12時の間:ときどき200度から35ノット、突風50ノット
15-18時:風が変化
18時-24日03時:340度から18ノットの風
但し、23日21時-24日03時の間:ときどき340度から28ノット、突風40ノット

但し、23日06-12時の間:ときどき

静岡空港
TAF RJNS 221105Z 2212/2318 22006KT 6000 -SHRA FEW008 BKN012
TEMPO 2217/2221 3000 SHRA BR FEW004 BKN008
TEMPO 2221/2224 1500 +SHRA BR FEW003 BKN005
BECMG 2222/2224 21020KT
BECMG 2300/2303 27024G36KT
TEMPO 2300/2303 3000 SHRA BR FEW003 BKN005
日本時間22日21時-23日07時:220度から6ノットの風
07-09時:風が変化
09時:210度から20ノットの風
09-12時:風が変化
12時-24日03時:270度から24ノット、突風36ノット


福岡空港
TAF RJFF 221108Z 2212/2318 22008KT 8000 -SHRA FEW008 SCT015 BKN025
TEMPO 2212/2215 3000 SHRA BR
BECMG 2214/2216 29012KT
TEMPO 2215/2219 4000 -SHRA BR FEW005 BKN008 BKN015
TEMPO 2300/2306 30015G25KT
日本時間22日21-23時:220度から8ノットの風
23時-23日01時:風が変化
01時-24日03時:290度から12ノットの風
但し、23日09-15時の間:ときどき300度から15ノット、突風25ノット


那覇空港
TAF AMD ROAH 221406Z 2214/2318 20014KT 8000 FEW008 BKN020
TEMPO 2214/2216 3000 +SHRA FEW006 BKN015 FEW020CB
BECMG 2220/2222 35018KT
TEMPO 2221/2223 3000 +SHRA FEW006 BKN015 FEW020CB
日本時間22日21時-22日05時:200度から14ノットの風
05-07時:風が変化
07時-24日03時:350度から18ノットの風

但し、22日23時-23日01時の間:ときどき
但し、23日06-08時の間:ときどき

石垣空港
TAF AMD ROIG 221421Z 2214/2318 22012KT 9999 FEW008 BKN025
BECMG 2216/2218 01014KT
TEMPO 2217/2219 4000 SHRA FEW006 BKN020 FEW025CB
日本時間22日21時-23日01時:220度から12ノットの風
01-03時:風が変化
03時-24日03時:010度から14ノットの風

但し、23日02-04時の間:ときどき

マウイのカフルイ空港
PHOG 221134Z 2212/2312 06011KT P6SM VCSH SCT035 BKN050
FM222000 06020G28KT P6SM FEW035 SCT050
FM230400 05014G22KT P6SM FEW035 SCT050
FM230600 05010KT P6SM FEW035 SCT050 AMD LTD TO VIS AND WIND TIL 221600
ハワイ時間22日02-10時:060度から11ノットの風

10-18時:060度から20ノット、突風28ノット
18-20時:050度から14ノット、突風22ノット
20時-23日02時:050度から10ノットの風


サイパン空港
TAF PGSN 221120Z 2212/2312 06011KT P6SM VCSH FEW025 SCT050 BKN110
FM222200 08014G22KT P6SM VCSH FEW020 SCT050 SCT110
マリアナ時間22日22時-23日08時:060度から11ノットの風
08-22時:080度から14ノット、突風22ノット
コメント